Time,TemperatureF,DewpointF,PressureIn,WindDirection,WindDirectionDegrees,WindSpeedMPH,WindSpeedGustMPH,Humidity,HourlyPrecipIn,Conditions,Clouds,dailyrainin,SolarRadiationWatts/m^2,SoftwareType,DateUTC
2013-03-07 00:00:00,32.0,30.0,-100.00,East,90,7.0,-999.0,92,-99.99,,,-99.99,0.000000,,2013-03-07 05:00:00,
2013-03-07 00:32:00,32.0,30.0,-100.00,East,90,7.0,-999.0,92,-99.99,,,-99.99,0.000000,,2013-03-07 05:32:00,
2013-03-07 00:42:00,32.0,30.0,-100.00,East,90,7.0,-999.0,92,-99.99,,,-99.99,0.000000,,2013-03-07 05:42:00,
2013-03-07 00:52:00,32.0,30.0,-100.00,East,90,7.0,-999.0,92,-99.99,,,-99.99,0.000000,,2013-03-07 05:52:00,
2013-03-07 01:00:00,32.0,30.0,-100.00,NE,45,7.0,-999.0,91,-99.99,,,-99.99,0.000000,,2013-03-07 06:00:00,
2013-03-07 01:42:00,32.0,30.0,-100.00,NE,45,7.0,-999.0,91,-99.99,,,-99.99,0.000000,,2013-03-07 06:42:00,
2013-03-07 01:52:00,32.0,30.0,-100.00,NE,45,7.0,-999.0,91,-99.99,,,-99.99,0.000000,,2013-03-07 06:52:00,
2013-03-07 02:00:00,33.0,30.0,-100.00,NE,45,8.0,-999.0,90,0.01,,,-99.99,0.000000,,2013-03-07 07:00:00,
2013-03-07 02:43:00,33.0,30.0,-100.00,NE,45,8.0,-999.0,90,0.01,,,-99.99,0.000000,,2013-03-07 07:43:00,
2013-03-07 02:53:00,33.0,30.0,-100.00,NE,45,8.0,-999.0,90,0.01,,,-99.99,0.000000,,2013-03-07 07:53:00,
2013-03-07 03:00:00,33.0,30.0,-100.00,NNE,22,7.0,-999.0,89,-99.99,,,-99.99,0.000000,,2013-03-07 08:00:00,
2013-03-07 03:45:00,33.0,30.0,-100.00,NNE,22,7.0,-999.0,89,-99.99,,,-99.99,0.000000,,2013-03-07 08:45:00,
2013-03-07 03:54:00,33.0,30.0,-100.00,NNE,22,7.0,-999.0,89,-99.99,,,-99.99,0.000000,,2013-03-07 08:54:00,
2013-03-07 04:00:00,32.0,30.0,-100.00,NNE,22,7.0,-999.0,90,-99.99,,,-99.99,0.000000,,2013-03-07 09:00:00,
2013-03-07 04:43:00,32.0,30.0,-100.00,NNE,22,7.0,-999.0,90,-99.99,,,-99.99,0.000000,,2013-03-07 09:43:00,
2013-03-07 04:53:00,32.0,30.0,-100.00,NNE,22,7.0,-999.0,90,-99.99,,,-99.99,0.000000,,2013-03-07 09:53:00,
2013-03-07 05:00:00,32.0,29.0,-100.00,NE,45,5.0,-999.0,91,-99.99,,,-99.99,0.000000,,2013-03-07 10:00:00,
2013-03-07 05:43:00,32.0,29.0,-100.00,NE,45,5.0,-999.0,91,-99.99,,,-99.99,0.000000,,2013-03-07 10:43:00,
2013-03-07 05:53:00,32.0,29.0,-100.00,NE,45,5.0,-999.0,91,-99.99,,,-99.99,0.000000,,2013-03-07 10:53:00,
2013-03-07 06:00:00,32.0,29.0,-100.00,SE,135,4.0,-999.0,92,-99.99,,,-99.99,0.000000,,2013-03-07 11:00:00,
2013-03-07 06:44:00,32.0,29.0,-100.00,SE,135,4.0,-999.0,92,-99.99,,,-99.99,0.000000,,2013-03-07 11:44:00,
2013-03-07 06:54:00,32.0,29.0,-100.00,SE,135,4.0,-999.0,92,-99.99,,,-99.99,0.000000,,2013-03-07 11:54:00,
2013-03-07 07:00:00,31.0,29.0,-100.00,ENE,67,4.0,-999.0,92,-99.99,,,-99.99,0.000000,,2013-03-07 12:00:00,
2013-03-07 07:43:00,31.0,29.0,-100.00,ENE,67,4.0,-999.0,92,-99.99,,,-99.99,0.000000,,2013-03-07 12:43:00,
2013-03-07 07:53:00,31.0,29.0,-100.00,ENE,67,4.0,-999.0,92,-99.99,,,-99.99,0.000000,,2013-03-07 12:53:00,
2013-03-07 09:00:00,33.0,29.0,-100.00,South,180,4.0,-999.0,85,-99.99,,,-99.99,93.959999,,2013-03-07 14:00:00,
2013-03-07 09:43:00,33.0,29.0,-100.00,South,180,4.0,-999.0,85,-99.99,,,-99.99,93.959999,,2013-03-07 14:43:00,
2013-03-07 09:54:00,33.0,29.0,-100.00,South,180,4.0,-999.0,85,-99.99,,,-99.99,93.959999,,2013-03-07 14:54:00,
2013-03-07 10:00:00,34.0,28.0,-100.00,NE,45,5.0,-999.0,78,-99.99,,,-99.99,184.440002,,2013-03-07 15:00:00,
2013-03-07 10:43:00,34.0,28.0,-100.00,NE,45,5.0,-999.0,78,-99.99,,,-99.99,184.440002,,2013-03-07 15:43:00,
2013-03-07 10:53:00,34.0,28.0,-100.00,NE,45,5.0,-999.0,78,-99.99,,,-99.99,184.440002,,2013-03-07 15:53:00,
2013-03-07 11:00:00,36.0,27.0,-100.00,NNE,22,5.0,-999.0,68,-99.99,,,-99.99,273.760010,,2013-03-07 16:00:00,
2013-03-07 11:43:00,36.0,27.0,-100.00,NNE,22,5.0,-999.0,68,-99.99,,,-99.99,273.760010,,2013-03-07 16:43:00,
2013-03-07 11:53:00,36.0,27.0,-100.00,NNE,22,5.0,-999.0,68,-99.99,,,-99.99,273.760010,,2013-03-07 16:53:00,
2013-03-07 12:00:00,39.0,26.0,-100.00,SE,135,5.0,-999.0,60,-99.99,,,-99.99,511.559998,,2013-03-07 17:00:00,
2013-03-07 12:44:00,39.0,26.0,-100.00,SE,135,5.0,-999.0,60,-99.99,,,-99.99,511.559998,,2013-03-07 17:44:00,
2013-03-07 12:54:00,39.0,26.0,-100.00,SE,135,5.0,-999.0,60,-99.99,,,-99.99,511.559998,,2013-03-07 17:54:00,
2013-03-07 13:00:00,37.0,25.0,-100.00,SW,225,7.0,-999.0,62,-99.99,,,-99.99,404.839996,,2013-03-07 18:00:00,
2013-03-07 13:42:00,37.0,25.0,-100.00,SW,225,7.0,-999.0,62,-99.99,,,-99.99,404.839996,,2013-03-07 18:42:00,
2013-03-07 13:53:00,37.0,25.0,-100.00,SW,225,7.0,-999.0,62,-99.99,,,-99.99,404.839996,,2013-03-07 18:53:00,
2013-03-07 14:00:00,36.0,26.0,-100.00,South,180,8.0,-999.0,67,-99.99,,,-99.99,342.200012,,2013-03-07 19:00:00,
2013-03-07 14:44:00,36.0,26.0,-100.00,South,180,8.0,-999.0,67,-99.99,,,-99.99,342.200012,,2013-03-07 19:44:00,
2013-03-07 14:53:00,36.0,26.0,-100.00,South,180,8.0,-999.0,67,-99.99,,,-99.99,342.200012,,2013-03-07 19:53:00,
2013-03-07 15:00:00,36.0,26.0,-100.00,West,270,7.0,-999.0,67,-99.99,,,-99.99,356.119995,,2013-03-07 20:00:00,
2013-03-07 15:43:00,36.0,26.0,-100.00,West,270,7.0,-999.0,67,-99.99,,,-99.99,356.119995,,2013-03-07 20:43:00,
2013-03-07 15:54:00,36.0,26.0,-100.00,West,270,7.0,-999.0,67,-99.99,,,-99.99,356.119995,,2013-03-07 20:54:00,
2013-03-07 16:00:00,34.0,26.0,-100.00,West,270,6.0,-999.0,72,-99.99,,,-99.99,180.960007,,2013-03-07 21:00:00,
2013-03-07 16:43:00,34.0,26.0,-100.00,West,270,6.0,-999.0,72,-99.99,,,-99.99,180.960007,,2013-03-07 21:43:00,
2013-03-07 16:53:00,34.0,26.0,-100.00,West,270,6.0,-999.0,72,-99.99,,,-99.99,180.960007,,2013-03-07 21:53:00,
2013-03-07 17:00:00,34.0,26.0,-100.00,SSW,202,5.0,-999.0,72,-99.99,,,-99.99,129.919998,,2013-03-07 22:00:00,
2013-03-07 17:43:00,34.0,26.0,-100.00,SSW,202,5.0,-999.0,72,-99.99,,,-99.99,129.919998,,2013-03-07 22:43:00,
2013-03-07 17:54:00,34.0,26.0,-100.00,SSW,202,5.0,-999.0,72,-99.99,,,-99.99,129.919998,,2013-03-07 22:54:00,
2013-03-07 18:00:00,38.0,24.0,-100.00,NNE,22,5.0,-999.0,57,-99.99,,,-99.99,235.479996,,2013-03-07 23:00:00,
2013-03-07 18:44:00,38.0,24.0,-100.00,NNE,22,5.0,-999.0,57,-99.99,,,-99.99,235.479996,,2013-03-07 23:44:00,
2013-03-07 18:54:00,38.0,24.0,-100.00,NNE,22,5.0,-999.0,57,-99.99,,,-99.99,235.479996,,2013-03-07 23:54:00,
2013-03-07 19:00:00,34.0,24.0,-100.00,NNE,22,5.0,-999.0,67,-99.99,,,-99.99,20.879999,,2013-03-08 00:00:00,
2013-03-07 19:44:00,34.0,24.0,-100.00,NNE,22,5.0,-999.0,67,-99.99,,,-99.99,20.879999,,2013-03-08 00:44:00,
2013-03-07 19:54:00,34.0,24.0,-100.00,NNE,22,5.0,-999.0,67,-99.99,,,-99.99,20.879999,,2013-03-08 00:54:00,
2013-03-07 20:00:00,30.0,24.0,-100.00,ENE,67,4.0,-999.0,79,-99.99,,,-99.99,0.000000,,2013-03-08 01:00:00,
2013-03-07 20:42:00,30.0,24.0,-100.00,ENE,67,4.0,-999.0,79,-99.99,,,-99.99,0.000000,,2013-03-08 01:42:00,
2013-03-07 20:52:00,30.0,24.0,-100.00,ENE,67,4.0,-999.0,79,-99.99,,,-99.99,0.000000,,2013-03-08 01:52:00,
2013-03-07 21:00:00,28.0,23.0,-100.00,ENE,67,3.0,-999.0,81,-99.99,,,-99.99,0.000000,,2013-03-08 02:00:00,
2013-03-07 21:42:00,28.0,23.0,-100.00,ENE,67,3.0,-999.0,81,-99.99,,,-99.99,0.000000,,2013-03-08 02:42:00,
2013-03-07 21:53:00,28.0,23.0,-100.00,ENE,67,3.0,-999.0,81,-99.99,,,-99.99,0.000000,,2013-03-08 02:53:00,
2013-03-07 22:00:00,27.0,23.0,-100.00,ENE,67,3.0,-999.0,82,-99.99,,,-99.99,0.000000,,2013-03-08 03:00:00,
2013-03-07 22:43:00,27.0,23.0,-100.00,ENE,67,3.0,-999.0,82,-99.99,,,-99.99,0.000000,,2013-03-08 03:43:00,
2013-03-07 22:53:00,27.0,23.0,-100.00,ENE,67,3.0,-999.0,82,-99.99,,,-99.99,0.000000,,2013-03-08 03:53:00,
2013-03-07 23:00:00,26.0,21.0,-100.00,East,90,1.0,-999.0,83,-99.99,,,-99.99,0.000000,,2013-03-08 04:00:00,
2013-03-07 23:42:00,26.0,21.0,-100.00,East,90,1.0,-999.0,83,-99.99,,,-99.99,0.000000,,2013-03-08 04:42:00,
2013-03-07 23:52:00,26.0,21.0,-100.00,East,90,1.0,-999.0,83,-99.99,,,-99.99,0.000000,,2013-03-08 04:52:00,